Time;durP1;ratioP1;P1;durP2;ratioP2;P2;SDS_P1;SDS_P2;PMS_P1;PMS_P2;Temp;Humidity;BMP_temperature;BMP_pressure;BME280_temperature;BME280_humidity;BME280_pressure;Samples;Min_cycle;Max_cycle;Signal;HPM_P1;HPM_P2
2023/11/13 00:00:41;;;;;;;35.87;21.20;;;;;;;4.97;100.00;102435.75;4952751;28;20201;-71
2023/11/13 00:03:07;;;;;;;32.10;22.43;;;;;;;4.92;100.00;102445.94;4950821;28;20181;-71
2023/11/13 00:05:33;;;;;;;32.60;23.20;;;;;;;4.69;100.00;102401.75;4954323;28;20193;-71
2023/11/13 00:07:59;;;;;;;30.53;21.80;;;;;;;4.94;100.00;102456.44;4966268;28;20456;-71
2023/11/13 00:10:25;;;;;;;29.30;22.10;;;;;;;5.12;100.00;102478.94;4973724;28;20434;-71
2023/11/13 00:12:51;;;;;;;31.43;20.87;;;;;;;5.10;100.00;102493.31;4974494;28;20869;-71
2023/11/13 00:15:16;;;;;;;22.87;18.70;;;;;;;5.28;100.00;102541.53;4977838;28;20572;-71
2023/11/13 00:17:41;;;;;;;23.00;16.83;;;;;;;5.39;100.00;102539.72;4977436;28;20248;-71
2023/11/13 00:20:08;;;;;;;25.83;20.43;;;;;;;5.32;100.00;102553.63;4975460;28;20664;-71
2023/11/13 00:22:33;;;;;;;27.10;20.23;;;;;;;4.95;100.00;102541.44;4977460;28;20193;-71
2023/11/13 00:24:59;;;;;;;25.03;20.00;;;;;;;5.31;100.00;102555.44;4970619;28;20461;-70
2023/11/13 00:27:24;;;;;;;23.57;20.33;;;;;;;5.49;100.00;102569.06;4969996;28;20194;-71
2023/11/13 00:29:50;;;;;;;29.03;22.17;;;;;;;5.06;100.00;102535.25;4971027;28;20217;-71
2023/11/13 00:32:16;;;;;;;27.20;22.53;;;;;;;5.03;100.00;102516.88;4966106;28;20214;-71
2023/11/13 00:34:43;;;;;;;34.87;22.60;;;;;;;4.73;100.00;102491.72;4956076;28;20460;-71
2023/11/13 00:37:08;;;;;;;30.73;22.40;;;;;;;5.07;100.00;102533.44;4977337;28;20201;-71
2023/11/13 00:39:34;;;;;;;29.10;22.40;;;;;;;4.48;100.00;102460.06;4972777;28;20448;-71
2023/11/13 00:42:00;;;;;;;31.57;21.17;;;;;;;5.17;100.00;102559.19;4975777;28;20217;-71
2023/11/13 00:44:25;;;;;;;29.03;20.73;;;;;;;5.17;100.00;102558.34;4955956;28;20846;-71
2023/11/13 00:46:51;;;;;;;28.77;21.43;;;;;;;4.60;100.00;102458.25;4973317;28;20190;-71
2023/11/13 00:49:17;;;;;;;28.73;21.27;;;;;;;5.14;100.00;102556.75;4974375;28;20182;-71
2023/11/13 00:51:42;;;;;;;27.57;21.17;;;;;;;4.62;100.00;102504.16;4957500;28;20208;-71
2023/11/13 00:54:09;;;;;;;27.63;19.83;;;;;;;5.09;100.00;102577.59;4977869;28;20209;-71
2023/11/13 00:56:35;;;;;;;26.17;19.53;;;;;;;5.06;100.00;102563.66;4977460;28;20182;-71
2023/11/13 00:59:00;;;;;;;28.87;19.13;;;;;;;4.71;100.00;102492.81;4971488;28;20457;-71
2023/11/13 01:01:26;;;;;;;32.00;21.17;;;;;;;4.62;100.00;102518.31;4973815;28;20300;-71
2023/11/13 01:03:52;;;;;;;28.50;20.37;;;;;;;4.84;100.00;102533.44;4953513;28;20564;-71
2023/11/13 01:06:17;;;;;;;23.23;18.77;;;;;;;4.87;100.00;102559.78;4971336;28;20185;-71
2023/11/13 01:08:43;;;;;;;32.70;20.03;;;;;;;4.98;100.00;102572.25;4972160;28;20196;-71
2023/11/13 01:11:10;;;;;;;25.03;19.40;;;;;;;5.13;100.00;102565.72;4938848;28;20229;-71
2023/11/13 01:13:36;;;;;;;28.90;20.83;;;;;;;4.34;100.00;102476.22;4965244;28;20479;-71
2023/11/13 01:16:03;;;;;;;24.87;19.40;;;;;;;5.30;100.00;102566.22;4958948;28;20441;-71
2023/11/13 01:18:28;;;;;;;29.30;21.13;;;;;;;4.52;100.00;102506.69;4972977;28;20927;-71
2023/11/13 01:20:54;;;;;;;27.10;19.37;;;;;;;4.54;100.00;102523.34;4979776;28;20444;-71
2023/11/13 01:23:19;;;;;;;40.70;23.00;;;;;;;4.82;100.00;102571.75;4973661;28;20218;-71
2023/11/13 01:25:45;;;;;;;29.70;18.50;;;;;;;4.91;100.00;102558.56;4972813;28;20197;-71
2023/11/13 01:28:10;;;;;;;25.20;19.53;;;;;;;5.09;100.00;102563.41;4974950;28;20660;-71
2023/11/13 01:30:36;;;;;;;27.63;19.70;;;;;;;4.62;100.00;102578.59;4975550;28;20287;-71
2023/11/13 01:33:02;;;;;;;26.80;19.53;;;;;;;4.89;100.00;102596.88;4972216;28;20290;-71
2023/11/13 01:35:27;;;;;;;30.67;20.30;;;;;;;4.86;100.00;102603.31;4954903;28;20745;-70
2023/11/13 01:37:53;;;;;;;31.77;21.20;;;;;;;4.71;100.00;102583.19;4974876;28;20228;-71
2023/11/13 01:40:18;;;;;;;29.30;20.73;;;;;;;5.03;100.00;102601.13;4972540;28;20300;-71
2023/11/13 01:42:44;;;;;;;36.03;21.40;;;;;;;4.64;100.00;102526.16;4975313;28;20201;-71
2023/11/13 01:45:10;;;;;;;31.73;22.40;;;;;;;4.47;100.00;102490.25;4968629;28;20193;-71
2023/11/13 01:47:36;;;;;;;34.67;21.33;;;;;;;4.52;100.00;102530.63;4952435;28;20185;-71
2023/11/13 01:50:04;;;;;;;30.77;21.00;;;;;;;4.99;100.00;102568.63;4970535;28;20195;-71
2023/11/13 01:52:32;;;;;;;26.27;20.37;;;;;;;4.86;100.00;102550.13;4969726;28;20472;-71
2023/11/13 01:55:00;;;;;;;28.80;19.67;;;;;;;4.65;100.00;102544.63;4973617;28;20448;-71
2023/11/13 01:57:26;;;;;;;29.27;20.53;;;;;;;4.91;100.00;102577.19;4977989;28;20444;-71
2023/11/13 01:59:53;;;;;;;31.83;20.20;;;;;;;4.75;100.00;102560.75;4975066;28;20433;-71
2023/11/13 02:02:19;;;;;;;33.30;21.07;;;;;;;4.67;100.00;102529.44;4960399;28;20470;-71
2023/11/13 02:04:45;;;;;;;37.57;21.47;;;;;;;4.85;100.00;102552.88;4974388;28;20448;-71
2023/11/13 02:07:11;;;;;;;30.20;21.67;;;;;;;4.83;100.00;102554.81;4959779;28;20455;-71
2023/11/13 02:09:40;;;;;;;26.30;18.70;;;;;;;4.98;100.00;102553.63;4974915;28;20825;-71
2023/11/13 02:12:07;;;;;;;33.60;20.40;;;;;;;4.37;100.00;102473.31;4971865;28;20201;-71
2023/11/13 02:14:32;;;;;;;28.73;19.43;;;;;;;5.03;100.00;102575.38;4954012;28;20487;-71
2023/11/13 02:17:05;;;;;;;27.40;20.00;;;;;;;4.97;100.00;102571.38;4960732;28;21483;-71
2023/11/13 02:19:31;;;;;;;29.27;18.03;;;;;;;5.00;100.00;102559.66;4975022;28;20194;-71
2023/11/13 02:21:58;;;;;;;25.73;19.40;;;;;;;5.19;100.00;102551.94;4973718;28;20472;-71
2023/11/13 02:24:24;;;;;;;21.77;17.67;;;;;;;5.32;100.00;102570.44;4974075;28;20189;-71
2023/11/13 02:26:51;;;;;;;25.17;17.20;;;;;;;5.24;100.00;102564.03;4976090;28;20440;-71
2023/11/13 02:29:16;;;;;;;23.93;16.80;;;;;;;4.86;100.00;102510.25;4978509;28;20491;-71
2023/11/13 02:31:52;;;;;;;20.77;15.10;;;;;;;5.30;100.00;102567.06;4976914;28;20461;-71
2023/11/13 02:34:19;;;;;;;20.10;14.87;;;;;;;5.02;100.00;102549.75;4968780;28;20190;-71
2023/11/13 02:36:47;;;;;;;19.00;14.33;;;;;;;4.51;100.00;102505.00;4957457;28;20506;-72
2023/11/13 02:39:13;;;;;;;18.20;15.47;;;;;;;4.61;100.00;102534.38;4977979;28;20559;-71
2023/11/13 02:41:38;;;;;;;19.07;15.00;;;;;;;4.59;100.00;102545.13;4978318;28;20973;-71
2023/11/13 02:44:04;;;;;;;18.90;13.70;;;;;;;3.94;100.00;102469.50;4972336;28;20185;-71
2023/11/13 02:46:29;;;;;;;19.47;14.87;;;;;;;4.21;100.00;102540.91;4972751;28;20186;-71
2023/11/13 02:48:54;;;;;;;25.37;17.20;;;;;;;4.02;100.00;102543.25;4952367;28;20193;-71
2023/11/13 02:51:20;;;;;;;26.63;17.50;;;;;;;3.93;100.00;102543.94;4955306;28;20216;-71
2023/11/13 02:53:45;;;;;;;22.70;17.93;;;;;;;4.08;100.00;102532.19;4974016;28;20825;-71
2023/11/13 02:56:11;;;;;;;25.43;18.30;;;;;;;3.96;100.00;102515.34;4954720;28;20181;-71
2023/11/13 02:58:36;;;;;;;19.60;15.77;;;;;;;3.70;100.00;102485.41;4959040;28;20201;-71
2023/11/13 03:01:02;;;;;;;20.50;16.13;;;;;;;4.07;100.00;102539.28;4971694;28;20711;-71
2023/11/13 03:03:27;;;;;;;19.53;14.63;;;;;;;3.98;100.00;102497.50;4950796;28;20281;-71
2023/11/13 03:05:53;;;;;;;19.27;15.00;;;;;;;3.79;100.00;102460.88;4974584;28;20221;-71
2023/11/13 03:08:18;;;;;;;20.97;15.27;;;;;;;4.09;100.00;102517.94;4953622;28;20228;-71
2023/11/13 03:10:44;;;;;;;17.63;14.80;;;;;;;4.60;100.00;102525.56;4969086;28;20196;-71
2023/11/13 03:13:09;;;;;;;16.23;13.93;;;;;;;3.71;100.00;102414.63;4972220;28;20221;-71
2023/11/13 03:15:35;;;;;;;17.03;13.50;;;;;;;4.14;100.00;102521.09;4954543;28;20440;-71
2023/11/13 03:18:00;;;;;;;19.23;13.80;;;;;;;4.40;100.00;102505.00;4978360;28;20186;-71
2023/11/13 03:20:26;;;;;;;17.63;14.73;;;;;;;3.96;100.00;102502.06;4977461;28;20210;-71
2023/11/13 03:22:51;;;;;;;16.87;14.00;;;;;;;3.95;100.00;102481.78;4976330;28;20228;-71
2023/11/13 03:25:18;;;;;;;18.47;12.93;;;;;;;3.27;100.00;102361.28;4973413;28;20850;-70
2023/11/13 03:27:43;;;;;;;17.70;14.03;;;;;;;3.84;100.00;102495.03;4961480;28;20186;-71
2023/11/13 03:30:09;;;;;;;16.20;13.23;;;;;;;1.74;100.00;102161.34;4984282;28;20448;-71
2023/11/13 03:32:35;;;;;;;19.60;15.37;;;;;;;3.73;100.00;102468.41;4976778;28;20214;-71
2023/11/13 03:35:01;;;;;;;18.37;12.30;;;;;;;3.94;100.00;102456.22;4962720;28;20531;-71
2023/11/13 03:37:26;;;;;;;20.50;14.77;;;;;;;3.47;100.00;102419.94;4981790;28;20205;-71
2023/11/13 03:39:52;;;;;;;25.23;13.80;;;;;;;3.66;100.00;102430.06;4965293;28;21870;-71
2023/11/13 03:42:18;;;;;;;18.33;14.77;;;;;;;3.73;100.00;102384.38;4982880;28;20214;-71
2023/11/13 03:44:43;;;;;;;15.33;13.33;;;;;;;3.75;100.00;102397.50;4962623;28;20185;-71
2023/11/13 03:47:09;;;;;;;19.67;13.80;;;;;;;3.82;100.00;102433.25;4981686;28;20433;-71
2023/11/13 03:49:34;;;;;;;17.27;12.83;;;;;;;3.75;100.00;102414.28;4968436;28;21800;-71
2023/11/13 03:52:00;;;;;;;15.13;12.00;;;;;;;3.84;100.00;102416.22;4983810;28;20923;-71
2023/11/13 03:54:25;;;;;;;17.50;12.23;;;;;;;3.78;100.00;102376.88;4985475;28;20190;-71
2023/11/13 03:56:50;;;;;;;16.40;12.63;;;;;;;3.01;100.00;102274.84;4982474;28;20186;-71
2023/11/13 03:59:16;;;;;;;14.03;11.73;;;;;;;3.59;100.00;102337.63;4958979;28;20712;-71
2023/11/13 04:01:42;;;;;;;14.87;12.17;;;;;;;3.48;100.00;102320.84;4974133;28;20696;-71
2023/11/13 04:04:09;;;;;;;16.40;11.80;;;;;;;3.23;100.00;102263.50;4973880;28;20201;-71
2023/11/13 04:06:34;;;;;;;17.53;12.47;;;;;;;3.61;100.00;102306.50;4977411;28;20197;-71
2023/11/13 04:09:00;;;;;;;14.93;11.80;;;;;;;3.51;100.00;102296.75;4955868;28;20448;-71
2023/11/13 04:11:26;;;;;;;14.13;11.10;;;;;;;3.67;100.00;102286.63;4974627;28;20221;-71
2023/11/13 04:13:51;;;;;;;18.70;12.50;;;;;;;3.15;100.00;102145.63;4971235;28;20222;-71
2023/11/13 04:16:17;;;;;;;18.00;11.80;;;;;;;3.03;100.00;102178.34;4954986;28;20437;-71
2023/11/13 04:18:42;;;;;;;14.90;11.93;;;;;;;2.98;100.00;102166.41;4975579;28;20190;-71
2023/11/13 04:21:08;;;;;;;13.70;11.00;;;;;;;3.33;100.00;102220.25;4973819;28;20205;-71
2023/11/13 04:23:33;;;;;;;16.97;12.20;;;;;;;3.09;100.00;102216.81;4976055;28;20190;-71
2023/11/13 04:26:00;;;;;;;20.80;13.27;;;;;;;2.56;100.00;102150.16;4971868;28;20248;-71
2023/11/13 04:28:30;;;;;;;17.03;12.20;;;;;;;2.97;100.00;102188.59;4974071;28;20190;-71
2023/11/13 04:30:56;;;;;;;25.03;15.07;;;;;;;3.35;100.00;102244.84;4967716;28;20444;-71
2023/11/13 04:33:21;;;;;;;26.87;14.50;;;;;;;3.09;100.00;102195.59;4974363;28;20898;-71
2023/11/13 04:35:47;;;;;;;21.53;15.03;;;;;;;3.30;100.00;102264.75;4960546;28;20181;-71
2023/11/13 04:38:12;;;;;;;20.37;13.83;;;;;;;3.87;100.00;102257.69;4977144;28;20189;-71
2023/11/13 04:40:38;;;;;;;20.10;14.10;;;;;;;2.90;100.00;102198.81;4973233;28;20193;-71
2023/11/13 04:43:03;;;;;;;17.37;12.33;;;;;;;3.60;100.00;102254.41;4982302;28;20316;-71
2023/11/13 04:45:29;;;;;;;17.60;13.10;;;;;;;3.45;100.00;102225.59;4979597;28;20220;-71
2023/11/13 04:47:54;;;;;;;17.23;12.90;;;;;;;3.40;100.00;102239.19;4956236;28;20186;-71
2023/11/13 04:50:20;;;;;;;18.00;12.50;;;;;;;3.20;100.00;102223.97;4976127;28;20644;-71
2023/11/13 04:52:46;;;;;;;17.63;13.00;;;;;;;3.51;100.00;102236.56;4975604;28;20761;-71
2023/11/13 04:55:12;;;;;;;21.50;15.00;;;;;;;3.23;100.00;102232.50;4974569;28;20186;-71
2023/11/13 04:57:38;;;;;;;14.97;12.90;;;;;;;3.20;100.00;102136.47;4977679;28;20737;-71
2023/11/13 05:00:05;;;;;;;14.77;13.17;;;;;;;3.61;100.00;102226.06;4978581;28;20454;-71
2023/11/13 05:02:30;;;;;;;16.23;13.33;;;;;;;3.31;100.00;102200.97;4976513;28;20467;-71
2023/11/13 05:04:56;;;;;;;14.70;12.83;;;;;;;2.52;100.00;102077.16;4976794;28;20441;-71
2023/11/13 05:07:22;;;;;;;17.87;13.40;;;;;;;2.94;100.00;102145.44;4978386;28;20787;-71
2023/11/13 05:09:48;;;;;;;16.70;12.20;;;;;;;3.23;100.00;102179.47;4973191;28;20189;-71
2023/11/13 05:12:14;;;;;;;16.10;13.00;;;;;;;3.46;100.00;102169.75;4967128;28;20476;-71
2023/11/13 05:14:43;;;;;;;16.63;12.83;;;;;;;3.23;100.00;102168.88;4950809;28;20177;-71
2023/11/13 05:17:09;;;;;;;15.00;11.97;;;;;;;3.58;100.00;102152.03;4961896;28;20543;-71
2023/11/13 05:19:34;;;;;;;16.93;13.87;;;;;;;3.11;100.00;102103.53;4960974;28;20528;-71
2023/11/13 05:22:00;;;;;;;15.77;13.67;;;;;;;3.12;100.00;102099.91;4961387;28;20284;-71
2023/11/13 05:24:26;;;;;;;15.47;12.50;;;;;;;3.28;100.00;102140.19;4976968;28;20190;-71
2023/11/13 05:26:52;;;;;;;14.80;12.20;;;;;;;3.48;100.00;102135.16;4975950;28;20576;-71
2023/11/13 05:29:18;;;;;;;17.03;12.47;;;;;;;3.20;100.00;102125.84;4963798;28;20443;-71
2023/11/13 05:31:43;;;;;;;16.13;12.20;;;;;;;3.47;100.00;102083.91;4976438;28;20464;-70
2023/11/13 05:34:09;;;;;;;16.50;12.37;;;;;;;3.46;100.00;102063.63;4975489;28;20476;-71
2023/11/13 05:36:34;;;;;;;15.60;12.40;;;;;;;3.04;100.00;102062.56;4978479;28;20616;-71
2023/11/13 05:39:00;;;;;;;15.80;12.63;;;;;;;3.43;100.00;102071.00;4958300;28;20190;-71
2023/11/13 05:41:25;;;;;;;12.90;11.37;;;;;;;3.38;100.00;102061.63;4975899;28;20765;-71
2023/11/13 05:43:54;;;;;;;15.37;11.40;;;;;;;3.12;100.00;102025.69;4959851;28;20178;-71
2023/11/13 05:46:20;;;;;;;18.30;11.63;;;;;;;3.54;100.00;102073.66;4966630;28;20277;-71
2023/11/13 05:48:46;;;;;;;14.70;12.80;;;;;;;3.33;100.00;102057.66;4963890;28;20586;-71
2023/11/13 05:51:14;;;;;;;15.53;10.80;;;;;;;3.48;100.00;102055.56;4962200;28;20841;-71
2023/11/13 05:53:39;;;;;;;18.53;12.07;;;;;;;3.74;100.00;102056.13;4962671;28;20214;-71
2023/11/13 05:56:05;;;;;;;16.40;12.47;;;;;;;3.15;100.00;102004.25;4963086;28;20970;-71
2023/11/13 05:58:30;;;;;;;13.17;10.20;;;;;;;3.61;100.00;102038.53;4983873;28;20185;-71
2023/11/13 06:00:57;;;;;;;16.33;12.03;;;;;;;3.45;100.00;102024.84;4982778;28;20201;-71
2023/11/13 06:03:23;;;;;;;15.67;9.70;;;;;;;3.14;100.00;102007.88;4963605;28;20209;-71
2023/11/13 06:05:49;;;;;;;17.87;11.23;;;;;;;3.30;100.00;102023.41;4970382;28;20453;-71
2023/11/13 06:08:15;;;;;;;14.63;10.60;;;;;;;3.33;100.00;101978.91;4967964;28;20182;-71
2023/11/13 06:10:40;;;;;;;15.30;9.60;;;;;;;2.22;100.00;101827.00;4985883;28;20436;-71
2023/11/13 06:13:06;;;;;;;17.20;11.23;;;;;;;2.58;100.00;101863.00;4986591;28;20206;-71
2023/11/13 06:15:31;;;;;;;15.50;10.90;;;;;;;3.82;100.00;102009.41;4965498;28;20197;-71
2023/11/13 06:17:57;;;;;;;18.40;11.73;;;;;;;2.51;100.00;101875.03;4983045;28;20611;-71
2023/11/13 06:20:23;;;;;;;15.40;12.13;;;;;;;3.21;100.00;101939.28;4971325;28;20205;-71
2023/11/13 06:22:49;;;;;;;15.80;11.80;;;;;;;3.44;100.00;101964.78;4965803;28;20236;-71
2023/11/13 06:25:14;;;;;;;18.87;11.30;;;;;;;3.04;100.00;101874.34;4982676;28;20560;-71
2023/11/13 06:27:41;;;;;;;17.97;11.50;;;;;;;3.68;100.00;101959.28;4982658;28;20675;-71
2023/11/13 06:30:10;;;;;;;15.00;10.60;;;;;;;3.91;100.00;101973.31;4984323;28;20202;-71
2023/11/13 06:32:36;;;;;;;15.60;11.63;;;;;;;3.76;100.00;101979.88;4983167;28;20481;-71
2023/11/13 06:35:02;;;;;;;15.63;10.57;;;;;;;3.71;100.00;101948.41;4983450;28;20432;-71
2023/11/13 06:37:27;;;;;;;16.93;11.63;;;;;;;2.66;100.00;101818.22;4983799;28;20826;-71
2023/11/13 06:39:52;;;;;;;15.27;12.30;;;;;;;2.84;100.00;101829.13;4965029;28;20764;-71
2023/11/13 06:42:18;;;;;;;15.20;11.23;;;;;;;3.70;100.00;101925.50;4975402;28;20193;-71
2023/11/13 06:44:43;;;;;;;17.23;12.00;;;;;;;3.57;100.00;101964.63;4980534;28;20752;-71
2023/11/13 06:47:09;;;;;;;16.03;11.57;;;;;;;3.87;100.00;101940.00;4976443;28;20196;-71
2023/11/13 06:49:38;;;;;;;15.43;11.40;;;;;;;4.14;100.00;101974.03;4976626;28;20634;-70
2023/11/13 06:52:08;;;;;;;19.07;12.67;;;;;;;3.82;100.00;101976.72;4982302;28;20800;-71
2023/11/13 06:54:34;;;;;;;18.90;12.70;;;;;;;3.48;100.00;101889.28;4963993;28;21227;-71
2023/11/13 06:57:00;;;;;;;17.50;11.70;;;;;;;3.78;100.00;101925.69;4982935;28;20793;-71
2023/11/13 06:59:28;;;;;;;15.23;11.77;;;;;;;3.58;100.00;101915.91;4959947;28;20444;-71
2023/11/13 07:01:55;;;;;;;19.33;12.40;;;;;;;3.74;100.00;101964.09;4980695;28;20217;-71
2023/11/13 07:04:21;;;;;;;23.40;13.90;;;;;;;3.78;100.00;101967.31;4979460;28;20448;-71
2023/11/13 07:06:46;;;;;;;19.27;13.27;;;;;;;3.88;100.00;101957.63;4979110;28;20444;-71
2023/11/13 07:09:12;;;;;;;17.13;13.13;;;;;;;3.80;100.00;101970.69;4962320;28;20182;-70
2023/11/13 07:11:42;;;;;;;18.03;13.20;;;;;;;3.54;100.00;101944.50;4983968;28;20217;-70
2023/11/13 07:14:09;;;;;;;15.07;12.07;;;;;;;4.33;100.00;101952.06;4962438;28;20696;-71
2023/11/13 07:16:35;;;;;;;18.20;12.90;;;;;;;4.19;100.00;101942.59;4979822;28;20995;-71
2023/11/13 07:19:06;;;;;;;16.03;12.30;;;;;;;4.42;100.00;101899.97;4982990;28;20444;-70
2023/11/13 07:21:32;;;;;;;13.57;11.13;;;;;;;4.16;100.00;101911.00;4981917;28;20483;-71
2023/11/13 07:24:00;;;;;;;16.80;12.10;;;;;;;4.06;100.00;101918.09;4979406;28;20437;-71
2023/11/13 07:26:26;;;;;;;16.73;13.27;;;;;;;3.67;100.00;101872.69;4979959;28;20190;-70
2023/11/13 07:28:52;;;;;;;20.27;12.87;;;;;;;3.24;100.00;101796.72;4983305;28;20432;-71
2023/11/13 07:31:19;;;;;;;16.60;12.00;;;;;;;4.33;100.00;101898.09;4966980;28;20536;-70
2023/11/13 07:33:45;;;;;;;17.67;12.67;;;;;;;4.00;100.00;101886.75;4979294;28;20480;-71
2023/11/13 07:36:11;;;;;;;16.10;11.53;;;;;;;4.07;100.00;101882.59;4981537;28;20442;-71
2023/11/13 07:38:36;;;;;;;17.00;12.20;;;;;;;4.16;100.00;101887.09;4964819;28;20447;-71
2023/11/13 07:41:02;;;;;;;15.73;12.03;;;;;;;4.00;100.00;101874.31;4983484;28;20468;-71
2023/11/13 07:43:28;;;;;;;15.63;12.20;;;;;;;4.13;100.00;101890.03;4976244;28;20182;-70
2023/11/13 07:45:54;;;;;;;15.13;11.43;;;;;;;4.32;100.00;101885.81;4984020;28;20663;-70
2023/11/13 07:48:20;;;;;;;16.10;10.47;;;;;;;3.71;100.00;101838.78;4981260;28;20445;-70
2023/11/13 07:50:46;;;;;;;14.63;11.10;;;;;;;4.24;100.00;101847.47;4980769;28;20441;-70
2023/11/13 07:53:12;;;;;;;13.70;11.63;;;;;;;3.54;100.00;101742.06;4982899;28;20259;-70
2023/11/13 07:55:43;;;;;;;13.53;10.87;;;;;;;4.64;100.00;101824.53;4963901;28;20182;-70
2023/11/13 07:58:10;;;;;;;12.50;9.80;;;;;;;4.74;100.00;101823.59;4979061;28;20464;-70
2023/11/13 08:00:36;;;;;;;12.83;10.20;;;;;;;4.67;100.00;101822.44;4984032;28;20463;-70
2023/11/13 08:03:03;;;;;;;14.40;9.97;;;;;;;4.29;100.00;101780.69;4962892;28;20495;-70
2023/11/13 08:05:30;;;;;;;13.13;10.70;;;;;;;4.60;100.00;101780.59;4981265;28;20437;-70
2023/11/13 08:07:56;;;;;;;16.53;10.63;;;;;;;4.73;100.00;101783.84;4966220;28;20446;-71
2023/11/13 08:10:24;;;;;;;13.20;10.43;;;;;;;4.91;100.00;101768.91;4981251;28;20503;-71
2023/11/13 08:12:49;;;;;;;13.00;9.80;;;;;;;4.51;100.00;101660.91;4962023;28;20472;-72
2023/11/13 08:15:16;;;;;;;15.37;9.97;;;;;;;5.32;100.00;101772.28;4962009;28;20484;-71
2023/11/13 08:17:46;;;;;;;12.77;9.80;;;;;;;5.32;100.00;101736.81;4979132;28;20192;-72
2023/11/13 08:20:15;;;;;;;17.03;9.37;;;;;;;5.27;100.00;101755.91;4955372;28;20432;-71
2023/11/13 08:22:47;;;;;;;12.30;9.03;;;;;;;4.97;100.00;101740.91;4980260;28;21046;-71
2023/11/13 08:25:14;;;;;;;13.10;9.27;;;;;;;5.13;100.00;101706.63;4974462;28;20550;-72
2023/11/13 08:27:44;;;;;;;12.53;9.70;;;;;;;5.30;100.00;101752.94;4961843;28;20444;-72
2023/11/13 08:30:15;;;;;;;10.60;8.37;;;;;;;5.51;100.00;101704.88;4980533;28;20441;-71
2023/11/13 08:32:41;;;;;;;12.00;8.13;;;;;;;4.94;100.00;101677.38;4980234;28;20700;-71
2023/11/13 08:35:15;;;;;;;12.00;9.00;;;;;;;5.11;100.00;101697.94;4979713;28;20509;-71
2023/11/13 08:37:45;;;;;;;11.80;8.43;;;;;;;5.21;100.00;101700.59;4978196;28;20437;-71
2023/11/13 08:40:14;;;;;;;12.23;8.33;;;;;;;5.02;100.00;101705.94;4979476;28;20461;-71
2023/11/13 08:42:42;;;;;;;11.53;7.23;;;;;;;5.05;100.00;101629.38;4978541;28;20568;-71
2023/11/13 08:45:12;;;;;;;13.77;7.90;;;;;;;5.07;100.00;101690.41;4963318;28;20519;-71
2023/11/13 08:47:56;;;;;;;11.23;7.63;;;;;;;5.48;100.00;101681.22;4962691;28;20864;-71
2023/11/13 08:50:22;;;;;;;11.93;8.57;;;;;;;5.81;100.00;101677.16;4964379;28;20448;-71
2023/11/13 08:52:50;;;;;;;11.27;7.57;;;;;;;5.69;100.00;101680.97;4982596;28;20515;-71
2023/11/13 08:55:19;;;;;;;11.10;7.00;;;;;;;5.26;100.00;101621.19;4977300;28;20444;-71
2023/11/13 08:57:46;;;;;;;10.90;8.03;;;;;;;5.43;100.00;101652.34;4981738;28;20432;-71
2023/11/13 09:00:24;;;;;;;9.93;7.53;;;;;;;5.54;100.00;101662.00;4979507;28;20445;-72
2023/11/13 09:02:54;;;;;;;14.33;9.00;;;;;;;5.58;100.00;101652.75;4983297;28;20531;-71
2023/11/13 09:05:25;;;;;;;11.70;8.77;;;;;;;5.57;100.00;101611.13;4976523;28;20441;-70
2023/11/13 09:07:51;;;;;;;10.03;7.20;;;;;;;5.73;100.00;101628.28;4977850;28;20433;-71
2023/11/13 09:10:21;;;;;;;12.83;7.63;;;;;;;5.64;100.00;101580.31;4958916;28;20555;-71
2023/11/13 09:12:47;;;;;;;13.07;7.47;;;;;;;5.99;100.00;101616.00;4980303;28;20500;-71
2023/11/13 09:15:17;;;;;;;10.53;6.37;;;;;;;5.69;100.00;101619.75;4983208;28;20441;-71
2023/11/13 09:17:48;;;;;;;14.33;6.50;;;;;;;5.75;100.00;101599.69;4965747;28;20441;-71
2023/11/13 09:20:19;;;;;;;9.47;6.30;;;;;;;5.17;100.00;101494.41;4979970;28;21021;-71
2023/11/13 09:22:47;;;;;;;8.70;6.40;;;;;;;5.91;100.00;101546.66;4960856;28;21272;-71
2023/11/13 09:25:16;;;;;;;9.60;6.73;;;;;;;5.98;100.00;101577.03;4978218;28;20467;-71
2023/11/13 09:27:47;;;;;;;8.57;5.90;;;;;;;6.14;100.00;101575.53;4979839;28;20796;-72
2023/11/13 09:30:18;;;;;;;10.33;6.50;;;;;;;5.91;100.00;101549.31;4977470;28;20973;-71
2023/11/13 09:32:45;;;;;;;13.20;6.17;;;;;;;5.99;100.00;101559.22;4976412;28;20461;-72
2023/11/13 09:35:22;;;;;;;11.50;6.00;;;;;;;6.03;100.00;101565.94;4978515;28;20595;-72
2023/11/13 09:37:53;;;;;;;10.17;6.10;;;;;;;5.91;100.00;101557.28;4967329;28;20515;-71
2023/11/13 09:40:22;;;;;;;7.30;6.07;;;;;;;5.79;100.00;101532.72;4981975;28;20445;-71
2023/11/13 09:42:54;;;;;;;7.43;5.10;;;;;;;5.87;100.00;101529.28;4983906;28;21008;-71
2023/11/13 09:45:21;;;;;;;9.77;5.87;;;;;;;5.35;100.00;101443.91;4978790;28;20464;-71
2023/11/13 09:47:49;;;;;;;8.67;5.40;;;;;;;6.01;100.00;101507.47;4982578;28;20441;-72
2023/11/13 09:50:15;;;;;;;8.37;5.80;;;;;;;5.66;100.00;101503.78;4982702;28;20471;-71
2023/11/13 09:52:56;;;;;;;7.33;5.23;;;;;;;5.67;100.00;101509.97;4982130;28;20476;-71
2023/11/13 09:55:23;;;;;;;8.83;5.50;;;;;;;5.20;100.00;101417.81;4965730;28;20816;-71
2023/11/13 09:57:52;;;;;;;7.60;4.83;;;;;;;5.94;100.00;101463.81;4967172;28;20443;-71
2023/11/13 10:00:23;;;;;;;7.20;5.50;;;;;;;5.74;100.00;101499.53;4985363;28;20542;-71
2023/11/13 10:02:53;;;;;;;10.60;6.00;;;;;;;5.93;100.00;101480.81;4983054;28;20475;-71
2023/11/13 10:05:20;;;;;;;7.50;4.90;;;;;;;5.74;100.00;101417.84;4977949;28;20448;-70
2023/11/13 10:07:54;;;;;;;7.30;4.97;;;;;;;5.61;100.00;101430.69;4964861;28;20455;-70
2023/11/13 10:10:26;;;;;;;9.63;5.63;;;;;;;5.95;100.00;101435.38;4981369;28;20502;-71
2023/11/13 10:12:54;;;;;;;7.47;4.97;;;;;;;5.96;100.00;101421.91;4980300;28;21458;-71
2023/11/13 10:15:31;;;;;;;8.63;5.20;;;;;;;5.93;100.00;101414.22;4962287;28;20503;-70
2023/11/13 10:17:58;;;;;;;7.00;5.23;;;;;;;6.27;100.00;101422.28;4964463;28;20433;-72
2023/11/13 10:20:26;;;;;;;11.40;5.07;;;;;;;5.96;100.00;101395.28;4983745;28;20668;-71
2023/11/13 10:23:05;;;;;;;9.40;5.43;;;;;;;5.79;100.00;101402.28;4981790;28;20454;-71
2023/11/13 10:25:46;;;;;;;7.67;5.23;;;;;;;6.15;100.00;101394.25;4984204;28;20587;-71
2023/11/13 10:28:13;;;;;;;8.90;5.23;;;;;;;6.01;100.00;101369.00;4979986;28;20436;-71
2023/11/13 10:30:55;;;;;;;9.33;6.13;;;;;;;6.30;100.00;101371.34;4981698;28;20531;-71
2023/11/13 10:33:21;;;;;;;8.70;6.03;;;;;;;6.22;100.00;101373.13;4979242;28;20547;-71
2023/11/13 10:35:48;;;;;;;8.40;5.90;;;;;;;6.08;100.00;101364.75;4963111;28;20535;-71
2023/11/13 10:38:14;;;;;;;10.07;6.10;;;;;;;5.88;100.00;101305.50;4979941;28;20974;-70
2023/11/13 10:40:58;;;;;;;8.40;5.70;;;;;;;6.02;100.00;101338.75;4985616;28;20433;-71
2023/11/13 10:43:31;;;;;;;7.73;5.50;;;;;;;6.21;100.00;101327.00;4961348;28;21294;-71
2023/11/13 10:45:59;;;;;;;10.83;5.73;;;;;;;6.21;100.00;101327.00;4968073;28;20428;-71
2023/11/13 10:48:45;;;;;;;8.57;6.10;;;;;;;6.07;100.00;101324.94;4961919;28;20440;-72
2023/11/13 10:51:14;;;;;;;7.50;6.10;;;;;;;6.21;100.00;101308.38;4965162;28;20508;-71
2023/11/13 10:53:42;;;;;;;11.93;5.80;;;;;;;6.14;100.00;101319.84;4985303;28;20846;-70
2023/11/13 10:56:09;;;;;;;7.60;6.23;;;;;;;6.23;100.00;101305.56;4969244;28;20575;-71
2023/11/13 10:58:35;;;;;;;7.53;5.97;;;;;;;6.37;100.00;101318.28;4983595;28;20836;-71
2023/11/13 11:01:05;;;;;;;9.33;6.57;;;;;;;5.88;100.00;101270.88;4965218;28;20500;-72
2023/11/13 11:03:32;;;;;;;10.00;7.57;;;;;;;6.37;100.00;101317.47;4965913;28;20429;-71
2023/11/13 11:06:06;;;;;;;9.27;7.57;;;;;;;6.17;100.00;101308.84;4984871;28;20434;-71
2023/11/13 11:08:32;;;;;;;11.23;7.30;;;;;;;6.33;100.00;101295.59;4985074;28;20450;-72
2023/11/13 11:10:59;;;;;;;9.50;6.70;;;;;;;5.83;100.00;101235.91;4968912;28;20459;-71